Bookmark and Share
Track history (hours):
 

Port Link

Last reported at 2012-Jul-13 16:25 UTC. Time now 2014-Apr-19 22:13 UTC.
Position N 36°16' W 003°11'.
Warning: this ship's position is years out of date!

Length 129 m; draft 4.6 m.

Type: Other ship. MMSI: 525016714.

NotesDate/timePositionNaut miles runAvg speedWind from/ knotsBaromVisibWave heightAir tempDewpointWater temp
2012-Jul-13 16:25N 36°16' W 003°11'1214.1
2012-Jul-13 15:33N 36°14' W 003°26'1514.5
2012-Jul-13 14:33N 36°11' W 003°44'1514.6
2012-Jul-13 13:33N 36°09' W 004°02'1515.1
2012-Jul-13 12:33N 36°08' W 004°20'1515.2
2012-Jul-13 11:33N 36°06' W 004°39'1515.7
2012-Jul-13 10:34N 36°02' W 004°57'1414.1
2012-Jul-13 09:33N 36°00' W 005°15'9 9.1
2012-Jul-13 08:33N 36°05' W 005°25'0 0.0
2012-Jul-13 07:29N 36°05' W 005°25'0 0.0
2012-Jul-13 06:32N 36°05' W 005°25'0 0.0
2012-Jul-13 05:32N 36°05' W 005°25'0 0.0
2012-Jul-13 04:28N 36°05' W 005°25'0 0.1
2012-Jul-13 03:29N 36°05' W 005°25'0 0.0
2012-Jul-13 02:32N 36°05' W 005°25'0 0.0
2012-Jul-13 01:25N 36°05' W 005°25'0 0.0
2012-Jul-13 00:28N 36°05' W 005°25'0 0.0
2012-Jul-12 23:32N 36°05' W 005°25'0 0.0
2012-Jul-12 22:32N 36°05' W 005°25'0 0.0
2012-Jul-12 21:29N 36°05' W 005°25'0 0.0
2012-Jul-12 20:28N 36°05' W 005°25'0 0.0
2012-Jul-12 19:28N 36°05' W 005°25'0 0.0
2012-Jul-12 18:32N 36°05' W 005°25'0 0.0
2012-Jul-12 17:33N 36°05' W 005°25'0 0.0
2012-Jul-12 16:32N 36°05' W 005°25'0 0.0
2012-Jul-12 15:28N 36°05' W 005°25'0 0.0
2012-Jul-12 14:32N 36°05' W 005°25'0 0.0
2012-Jul-12 13:29N 36°05' W 005°25'0 0.0
2012-Jul-12 12:28N 36°05' W 005°25'0 0.0
2012-Jul-12 11:28N 36°05' W 005°25'0 0.0
2012-Jul-12 10:35N 36°05' W 005°25'0 0.0
2012-Jul-12 08:32N 36°05' W 005°25'0 0.0
2012-Jul-11 19:29N 36°05' W 005°25'0 0.0
2012-Jul-11 17:32N 36°05' W 005°25'0 0.0
2012-Jul-11 16:28N 36°05' W 005°25'0 0.0
2012-Jul-11 15:32N 36°05' W 005°25'0 0.0
2012-Jul-11 14:32N 36°05' W 005°25'0 0.0
2012-Jul-11 13:28N 36°05' W 005°25'0 0.0
2012-Jul-11 12:29N 36°05' W 005°25'0 0.0
2012-Jul-11 11:26N 36°05' W 005°25'0 0.0
2012-Jul-11 10:28N 36°05' W 005°25'0 0.0
2012-Jul-11 09:32N 36°05' W 005°25'0 0.0
2012-Jul-11 08:29N 36°05' W 005°25'0 0.0
2012-Jul-11 07:28N 36°05' W 005°25'0 0.0
2012-Jul-11 06:29N 36°05' W 005°25'0 0.0
2012-Jul-11 05:29N 36°05' W 005°25'0 0.0
2012-Jul-11 04:34N 36°05' W 005°25'0 0.0
2012-Jul-11 03:32N 36°05' W 005°25'0 0.0
2012-Jul-11 02:29N 36°05' W 005°25'0 0.0
2012-Jul-11 01:29N 36°05' W 005°25'0 0.1
2012-Jul-11 00:33N 36°05' W 005°25'0 0.0
2012-Jul-10 23:33N 36°05' W 005°25'1 0.5
2012-Jul-10 22:33N 36°05' W 005°24'3 2.6
2012-Jul-10 21:33N 36°04' W 005°21'3 3.5
2012-Jul-10 20:33N 36°04' W 005°17'7 7.0
2012-Jul-10 19:33N 36°10' W 005°11'4 0.6
2012-Jul-10 13:34N 36°13' W 005°08'3 2.9
2012-Jul-10 12:33N 36°11' W 005°05'2 2.1
2012-Jul-10 11:32N 36°11' W 005°07'1 1.1
2012-Jul-10 10:36N 36°12' W 005°08'6 6.1
2012-Jul-10 09:32N 36°06' W 005°05'3 2.9
2012-Jul-10 08:33N 36°08' W 005°07'2 2.4
2012-Jul-10 07:33N 36°09' W 005°09'5 4.9
2012-Jul-10 06:33N 36°06' W 005°05'2 2.5
2012-Jul-10 05:33N 36°08' W 005°07'1 1.3
2012-Jul-10 04:36N 36°09' W 005°07'1 0.6
2012-Jul-10 03:33N 36°10' W 005°08'1 1.3
2012-Jul-10 02:32N 36°09' W 005°08'1 1.5
2012-Jul-10 01:33N 36°10' W 005°09'4 3.8
2012-Jul-10 00:33N 36°12' W 005°05'1 0.7
2012-Jul-09 23:33N 36°12' W 005°06'1 1.1
2012-Jul-09 22:33N 36°11' W 005°07'1 1.0
2012-Jul-09 21:33N 36°10' W 005°08'1 0.4
2012-Jul-09 18:33N 36°12' W 005°07'2 1.8
2012-Jul-09 17:33N 36°10' W 005°08'1 0.6
2012-Jul-09 16:33N 36°10' W 005°08'2 2.0
2012-Jul-09 15:32N 36°08' W 005°06'1 1.5
2012-Jul-09 14:32N 36°10' W 005°06'1 1.2
2012-Jul-09 13:33N 36°10' W 005°08'1 0.5
2012-Jul-09 12:32N 36°10' W 005°07'3 3.2
2012-Jul-09 11:33N 36°07' W 005°05'2 2.3
2012-Jul-09 10:35N 36°09' W 005°07'0 0.3
2012-Jul-09 09:33N 36°09' W 005°07'3 2.7
2012-Jul-09 08:33N 36°08' W 005°04'2 1.7
2012-Jul-09 07:33N 36°09' W 005°05'2 1.7
2012-Jul-09 06:33N 36°10' W 005°07'3 3.0
2012-Jul-09 05:30N 36°07' W 005°05'1 1.6
2012-Jul-09 04:36N 36°08' W 005°07'1 1.0
2012-Jul-09 03:30N 36°09' W 005°08'3 3.0
2012-Jul-09 02:33N 36°10' W 005°11'1 1.1
2012-Jul-09 01:33N 36°09' W 005°10'0 0.4
2012-Jul-09 00:32N 36°09' W 005°10'2 2.0
2012-Jul-08 23:33N 36°11' W 005°08'1 1.0
2012-Jul-08 22:30N 36°11' W 005°07'1 0.7
2012-Jul-08 21:33N 36°10' W 005°07'2 0.6
2012-Jul-08 18:33N 36°12' W 005°07'2 1.6
2012-Jul-08 17:33N 36°10' W 005°07'2 1.5
2012-Jul-08 16:33N 36°09' W 005°07'2 2.3
2012-Jul-08 15:33N 36°07' W 005°05'2 2.3
2012-Jul-08 14:33N 36°09' W 005°07'2 1.5
2012-Jul-08 13:32N 36°07' W 005°06'2 1.8
2012-Jul-08 12:32N 36°09' W 005°08'1 0.7
2012-Jul-08 11:33N 36°08' W 005°07'1 0.9
2012-Jul-08 10:35N 36°08' W 005°06'3 2.5
2012-Jul-08 09:33N 36°06' W 005°08'1010.5
2012-Jul-08 08:33N 36°03' W 005°20'1413.8
2012-Jul-08 07:33N 35°56' W 005°35'11111.1
2012-Jul-07 21:33N 36°15' W 007°50'1313.0
2012-Jul-07 20:31N 36°18' W 008°06'2613.3
2012-Jul-07 18:33N 36°25' W 008°38'4012.9
2012-Jul-07 15:26N 36°39' W 009°24'5313.4
2012-Jul-07 11:31N 37°30' W 009°44'1414.0
2012-Jul-07 10:33N 37°43' W 009°49'1413.6
2012-Jul-07 09:32N 37°56' W 009°52'1413.6
2012-Jul-07 08:32N 38°10' W 009°55'5213.1
2012-Jul-07 04:36N 39°01' W 010°06'  

Dump ship's entire track history

sailing weather and tide predictions

Port Link — POQZ — position and weather